Time;durP1;ratioP1;P1;durP2;ratioP2;P2;SDS_P1;SDS_P2;PMS_P1;PMS_P2;Temp;Humidity;BMP_temperature;BMP_pressure;BME280_temperature;BME280_humidity;BME280_pressure;Samples;Min_cycle;Max_cycle;Signal;HPM_P1;HPM_P2
2022/07/16 00:01:26;;;;;;;5.63;5.13;;;;;;;23.93;63.04;99257.97;5072439;28;20200;-59
2022/07/16 00:03:54;;;;;;;5.72;5.22;;;;;;;23.93;62.58;99260.59;5072602;28;20196;-61
2022/07/16 00:06:24;;;;;;;5.38;4.97;;;;;;;23.90;62.43;99256.41;5072377;28;20593;-59
2022/07/16 00:08:51;;;;;;;5.15;4.75;;;;;;;23.87;62.60;99254.03;5071884;28;20235;-59
2022/07/16 00:11:18;;;;;;;5.72;4.68;;;;;;;23.90;62.25;99251.09;5072187;28;20202;-54
2022/07/16 00:13:45;;;;;;;5.40;4.60;;;;;;;23.86;62.03;99258.47;5072077;28;20557;-53
2022/07/16 00:16:12;;;;;;;5.15;4.65;;;;;;;23.88;61.96;99264.50;5070898;28;20192;-54
2022/07/16 00:21:25;;;;;;;6.50;4.13;;;;;;;23.78;61.87;99254.81;5072066;28;20687;-60
2022/07/16 00:23:52;;;;;;;6.15;4.05;;;;;;;23.82;62.17;99262.34;5071815;28;20279;-61
2022/07/16 00:26:19;;;;;;;5.47;4.10;;;;;;;23.96;61.89;99266.47;5071874;28;20200;-61
2022/07/16 00:28:47;;;;;;;4.43;3.70;;;;;;;23.95;61.94;99269.25;5071822;28;20195;-61
2022/07/16 00:31:14;;;;;;;5.28;3.80;;;;;;;23.79;62.38;99265.31;5072168;28;20660;-60
2022/07/16 00:33:41;;;;;;;4.18;3.97;;;;;;;23.81;62.52;99267.81;5071898;28;20220;-61
2022/07/16 00:36:08;;;;;;;4.63;3.78;;;;;;;23.74;62.88;99270.16;5071948;28;20283;-60
2022/07/16 00:38:36;;;;;;;6.38;3.75;;;;;;;23.66;63.75;99271.78;5071737;28;20196;-60
2022/07/16 00:41:03;;;;;;;5.10;3.80;;;;;;;23.68;63.58;99269.84;5071415;28;20219;-61
2022/07/16 00:43:30;;;;;;;4.20;3.70;;;;;;;23.68;63.30;99276.00;5071366;28;20210;-59
2022/07/16 00:45:57;;;;;;;4.70;3.60;;;;;;;23.52;64.05;99276.47;5070467;28;20196;-59
2022/07/16 00:48:24;;;;;;;4.30;4.00;;;;;;;23.49;64.02;99276.69;5071449;28;20196;-59
2022/07/16 00:50:51;;;;;;;4.20;3.65;;;;;;;23.37;64.61;99277.75;5071496;28;20556;-60
2022/07/16 00:53:18;;;;;;;4.07;3.75;;;;;;;23.38;64.65;99274.13;5071458;28;20206;-60
2022/07/16 00:55:46;;;;;;;3.83;3.47;;;;;;;23.40;64.73;99272.19;5071308;28;20203;-60
2022/07/16 00:58:13;;;;;;;6.50;3.70;;;;;;;23.34;65.06;99272.72;5071200;28;20202;-54
2022/07/16 01:00:40;;;;;;;4.18;3.60;;;;;;;23.18;66.08;99270.53;5071191;28;20227;-54
2022/07/16 01:03:08;;;;;;;4.20;3.90;;;;;;;23.02;66.95;99275.44;5071098;28;20235;-54
2022/07/16 01:05:35;;;;;;;5.00;3.70;;;;;;;23.11;66.58;99277.31;5071257;28;20606;-54
2022/07/16 01:08:03;;;;;;;4.10;3.80;;;;;;;23.09;66.40;99279.25;5070933;28;20238;-54
2022/07/16 01:10:31;;;;;;;3.97;3.65;;;;;;;23.20;65.51;99277.50;5070750;28;20192;-59
2022/07/16 01:13:01;;;;;;;4.25;3.75;;;;;;;23.18;65.68;99261.75;5071024;28;20196;-60
2022/07/16 01:15:27;;;;;;;3.95;3.75;;;;;;;23.24;65.37;99273.63;5070895;28;20203;-60
2022/07/16 01:17:55;;;;;;;4.38;3.60;;;;;;;23.07;65.98;99281.19;5071218;28;20196;-60
2022/07/16 01:20:22;;;;;;;4.20;4.00;;;;;;;22.85;67.33;99272.50;5070983;28;20228;-60
2022/07/16 01:22:49;;;;;;;4.20;3.90;;;;;;;22.71;67.74;99257.75;5070682;28;20241;-60
2022/07/16 01:25:18;;;;;;;4.63;3.83;;;;;;;22.71;67.94;99257.75;5070718;28;20285;-60
2022/07/16 01:27:45;;;;;;;3.92;3.50;;;;;;;22.64;67.82;99261.88;5070570;28;20196;-60
2022/07/16 01:30:12;;;;;;;4.07;3.78;;;;;;;22.67;67.60;99259.81;5070593;28;20288;-54
2022/07/16 01:32:39;;;;;;;4.60;4.15;;;;;;;22.75;66.62;99243.31;5070571;28;20200;-55
2022/07/16 01:35:07;;;;;;;4.20;3.90;;;;;;;22.89;65.85;99255.44;5070557;28;20839;-54
2022/07/16 01:37:34;;;;;;;4.07;3.85;;;;;;;22.90;65.37;99252.66;5070293;28;20200;-54
2022/07/16 01:40:01;;;;;;;3.97;3.67;;;;;;;22.82;65.46;99249.78;5070528;28;20216;-54
2022/07/16 01:42:30;;;;;;;5.35;3.70;;;;;;;22.87;65.44;99263.50;5070615;28;20740;-54
2022/07/16 01:44:57;;;;;;;4.10;3.53;;;;;;;22.88;65.35;99261.69;5070450;28;20195;-55
2022/07/16 01:47:24;;;;;;;4.57;4.22;;;;;;;22.90;65.07;99257.94;5070088;28;20230;-54
2022/07/16 01:49:51;;;;;;;4.70;4.40;;;;;;;22.92;64.92;99256.00;5070211;28;20278;-60
2022/07/16 01:52:20;;;;;;;4.05;3.75;;;;;;;23.01;64.68;99257.03;5070292;28;20701;-54
2022/07/16 01:54:49;;;;;;;3.90;3.70;;;;;;;22.99;64.39;99257.16;5070363;28;20679;-60
2022/07/16 01:57:16;;;;;;;4.30;3.90;;;;;;;23.05;64.20;99259.28;5070289;28;20192;-60
2022/07/16 01:59:45;;;;;;;5.85;3.70;;;;;;;23.05;64.25;99255.81;5070133;28;20216;-60
2022/07/16 02:02:13;;;;;;;4.18;3.55;;;;;;;22.96;64.02;99248.63;5070265;28;20192;-60
2022/07/16 02:04:41;;;;;;;3.92;3.63;;;;;;;22.94;64.57;99262.00;5069762;28;20664;-60
2022/07/16 02:07:08;;;;;;;4.38;4.00;;;;;;;22.92;64.33;99260.44;5070109;28;20192;-60
2022/07/16 02:09:35;;;;;;;4.70;4.32;;;;;;;22.94;64.36;99267.28;5070020;28;20232;-60
2022/07/16 02:12:02;;;;;;;3.92;3.63;;;;;;;22.97;64.27;99264.41;5069940;28;20196;-59
2022/07/16 02:14:29;;;;;;;3.42;3.13;;;;;;;22.95;64.13;99255.75;5070168;28;20585;-60
2022/07/16 02:16:58;;;;;;;5.57;3.80;;;;;;;22.99;63.87;99265.13;5069877;28;20279;-58
2022/07/16 02:19:25;;;;;;;3.80;3.53;;;;;;;23.00;63.86;99260.66;5069735;28;20200;-60
2022/07/16 02:21:52;;;;;;;3.97;3.78;;;;;;;22.91;63.88;99254.31;5069814;28;20224;-58
2022/07/16 02:24:19;;;;;;;4.10;3.80;;;;;;;22.82;64.16;99257.72;5069760;28;20195;-59
2022/07/16 02:26:46;;;;;;;6.45;3.53;;;;;;;22.73;64.13;99256.66;5069985;28;20584;-60
2022/07/16 02:29:13;;;;;;;3.45;3.30;;;;;;;22.78;64.03;99259.81;5069867;28;20202;-59
2022/07/16 02:31:42;;;;;;;3.58;3.38;;;;;;;22.85;63.44;99262.78;5069643;28;20278;-59
2022/07/16 02:34:10;;;;;;;4.55;4.25;;;;;;;22.85;63.46;99259.28;5069729;28;20200;-54
2022/07/16 02:36:37;;;;;;;3.63;3.42;;;;;;;22.69;63.26;99235.88;5069594;28;20227;-54
2022/07/16 02:39:04;;;;;;;3.97;3.42;;;;;;;22.85;63.12;99262.78;5069509;28;20196;-59
2022/07/16 02:41:31;;;;;;;3.30;3.10;;;;;;;22.84;63.08;99270.84;5069496;28;20229;-60
2022/07/16 02:43:58;;;;;;;6.57;4.05;;;;;;;22.84;62.87;99266.38;5069524;28;20283;-59
2022/07/16 02:46:25;;;;;;;4.22;3.60;;;;;;;22.82;62.87;99268.31;5069456;28;20199;-59
2022/07/16 02:48:52;;;;;;;5.63;3.80;;;;;;;22.86;62.35;99276.84;5069596;28;20196;-59
2022/07/16 02:51:20;;;;;;;5.32;3.42;;;;;;;22.84;62.21;99262.91;5069883;28;20615;-59
2022/07/16 02:53:47;;;;;;;3.70;3.40;;;;;;;22.89;62.33;99260.72;5069573;28;20206;-60
2022/07/16 02:56:14;;;;;;;5.38;3.25;;;;;;;22.97;61.98;99266.19;5069484;28;20196;-60
2022/07/16 02:58:41;;;;;;;3.80;3.28;;;;;;;22.97;61.98;99282.94;5069418;28;20760;-60
2022/07/16 03:01:08;;;;;;;4.05;3.20;;;;;;;22.90;62.31;99271.19;5068077;28;20699;-60
2022/07/16 03:03:35;;;;;;;6.43;3.35;;;;;;;22.79;62.85;99281.81;5067932;28;20196;-60
2022/07/16 03:06:02;;;;;;;4.13;3.83;;;;;;;22.80;62.88;99278.19;5068035;28;20611;-60
2022/07/16 03:08:31;;;;;;;4.13;3.80;;;;;;;22.66;63.38;99281.97;5070604;28;20677;-60
2022/07/16 03:10:58;;;;;;;4.03;3.60;;;;;;;22.57;63.72;99282.72;5073353;28;20223;-60
2022/07/16 03:13:25;;;;;;;3.78;3.47;;;;;;;22.60;63.93;99286.88;5072476;28;20282;-60
2022/07/16 03:15:53;;;;;;;7.63;3.70;;;;;;;22.53;63.98;99291.00;5069618;28;20188;-60
2022/07/16 03:18:21;;;;;;;5.97;3.30;;;;;;;22.50;64.31;99296.53;5072017;28;20196;-60
2022/07/16 03:20:48;;;;;;;6.40;3.38;;;;;;;22.59;64.19;99301.09;5071869;28;20216;-59
2022/07/16 03:23:15;;;;;;;3.60;3.28;;;;;;;22.63;63.99;99291.94;5072054;28;20275;-60
2022/07/16 03:25:43;;;;;;;4.15;3.85;;;;;;;22.70;64.03;99291.31;5071832;28;20196;-60
2022/07/16 03:28:10;;;;;;;5.85;3.70;;;;;;;22.61;64.83;99294.72;5071610;28;20192;-60
2022/07/16 03:30:38;;;;;;;4.25;3.83;;;;;;;22.59;64.53;99280.75;5071148;28;20798;-59
2022/07/16 03:33:06;;;;;;;4.57;3.83;;;;;;;22.63;64.67;99291.94;5071159;28;20278;-53
2022/07/16 03:35:33;;;;;;;6.10;3.95;;;;;;;22.71;64.49;99292.13;5071081;28;20277;-59
2022/07/16 03:40:46;;;;;;;5.00;4.60;;;;;;;22.85;63.26;99291.03;5071527;28;20695;-59
2022/07/16 03:43:13;;;;;;;9.27;4.30;;;;;;;22.96;62.80;99289.19;5071159;28;20199;-60
2022/07/16 03:45:40;;;;;;;6.40;3.80;;;;;;;22.95;63.01;99298.09;5070076;28;20669;-58
2022/07/16 03:48:07;;;;;;;3.80;3.60;;;;;;;23.01;63.00;99299.41;5073514;28;20595;-59
2022/07/16 03:50:34;;;;;;;5.28;3.83;;;;;;;23.09;62.04;99297.78;5073571;28;20206;-58
2022/07/16 03:53:01;;;;;;;7.60;4.07;;;;;;;23.29;60.58;99295.25;5070080;28;20231;-54
2022/07/16 03:55:28;;;;;;;5.65;4.43;;;;;;;23.41;60.17;99294.22;5070242;28;20287;-54
2022/07/16 03:57:57;;;;;;;4.97;4.65;;;;;;;23.93;58.28;99301.19;5069040;28;20706;-55
2022/07/16 04:00:23;;;;;;;5.05;3.55;;;;;;;25.26;54.09;99296.25;5069331;28;20223;-54
2022/07/16 04:02:50;;;;;;;4.03;3.75;;;;;;;26.84;48.88;99311.22;5071849;28;20218;-54
2022/07/16 04:05:17;;;;;;;7.95;3.80;;;;;;;28.33;44.70;99315.38;5073672;28;20196;-58
2022/07/16 04:07:44;;;;;;;5.90;5.40;;;;;;;29.85;41.51;99324.66;5072389;28;20228;-54
2022/07/16 04:10:11;;;;;;;4.50;4.18;;;;;;;30.84;38.91;99329.38;5072232;28;20196;-54
2022/07/16 04:12:38;;;;;;;5.43;3.55;;;;;;;31.84;36.97;99328.19;5072400;28;20203;-53
2022/07/16 04:15:07;;;;;;;3.83;3.63;;;;;;;32.58;35.60;99328.97;5073356;28;20200;-58
2022/07/16 04:17:34;;;;;;;7.53;4.50;;;;;;;33.38;34.02;99341.41;5070739;28;20674;-59
2022/07/16 04:20:01;;;;;;;4.30;4.10;;;;;;;33.99;32.72;99341.59;5069696;28;20282;-60
2022/07/16 04:22:28;;;;;;;5.47;3.60;;;;;;;34.94;31.59;99347.84;5069609;28;20319;-59
2022/07/16 04:24:55;;;;;;;3.97;3.25;;;;;;;35.82;30.20;99343.09;5070616;28;20188;-59
2022/07/16 04:27:22;;;;;;;4.70;3.78;;;;;;;36.86;28.69;99345.63;5070735;28;20224;-59
2022/07/16 04:29:49;;;;;;;5.93;5.15;;;;;;;36.98;28.58;99359.28;5070851;28;20802;-54
2022/07/16 04:32:17;;;;;;;4.30;4.03;;;;;;;37.50;27.59;99363.47;5070242;28;20191;-59
2022/07/16 04:34:44;;;;;;;4.68;4.28;;;;;;;37.90;26.94;99368.56;5066391;28;20211;-60
2022/07/16 04:37:11;;;;;;;6.03;3.38;;;;;;;37.95;26.87;99364.09;5070087;28;20209;-54
2022/07/16 04:39:38;;;;;;;3.85;3.60;;;;;;;37.59;27.71;99372.16;5070667;28;20271;-54
2022/07/16 04:42:05;;;;;;;6.53;5.90;;;;;;;37.72;27.16;99370.19;5070177;28;20212;-59
2022/07/16 04:44:32;;;;;;;6.28;3.28;;;;;;;38.39;26.91;99375.72;5070211;28;20199;-60
2022/07/16 04:46:58;;;;;;;3.35;3.15;;;;;;;38.89;26.48;99376.34;5070125;28;20195;-59
2022/07/16 04:49:27;;;;;;;4.03;3.83;;;;;;;39.33;25.78;99375.06;5070494;28;20195;-59
2022/07/16 04:51:54;;;;;;;4.38;3.97;;;;;;;40.13;24.54;99380.78;5070287;28;20598;-59
2022/07/16 04:54:21;;;;;;;4.80;3.60;;;;;;;40.48;24.28;99382.63;5070540;28;20611;-59
2022/07/16 04:56:48;;;;;;;3.65;3.33;;;;;;;40.98;23.98;99389.06;5069864;28;20295;-55
2022/07/16 04:59:15;;;;;;;3.30;2.50;;;;;;;40.96;23.58;99391.22;5069408;28;20196;-55
2022/07/16 05:01:42;;;;;;;2.65;2.45;;;;;;;41.48;23.06;99388.31;5069662;28;20725;-55
2022/07/16 05:04:09;;;;;;;3.25;2.78;;;;;;;41.80;22.95;99394.00;5069002;28;20195;-55
2022/07/16 05:06:37;;;;;;;6.72;2.92;;;;;;;40.95;23.15;99395.00;5069982;28;20586;-55
2022/07/16 05:09:04;;;;;;;9.32;2.80;;;;;;;41.13;23.61;99390.44;5070212;28;20237;-59
2022/07/16 05:11:31;;;;;;;3.03;2.78;;;;;;;41.88;23.00;99393.56;5071018;28;20191;-55
2022/07/16 05:13:58;;;;;;;3.65;2.40;;;;;;;42.07;22.25;99396.88;5070928;28;20215;-54
2022/07/16 05:16:25;;;;;;;2.67;2.50;;;;;;;41.40;22.92;99391.47;5070917;28;20199;-54
2022/07/16 05:18:53;;;;;;;5.18;3.72;;;;;;;40.96;23.26;99391.22;5071436;28;20218;-54
2022/07/16 05:21:20;;;;;;;4.25;3.22;;;;;;;41.02;23.38;99389.41;5070350;28;20310;-54
2022/07/16 05:23:48;;;;;;;3.83;2.50;;;;;;;41.08;23.43;99390.34;5069332;28;20199;-54
2022/07/16 05:26:15;;;;;;;3.38;3.10;;;;;;;41.41;22.97;99390.38;5070147;28;20651;-55
2022/07/16 05:28:42;;;;;;;4.45;3.20;;;;;;;41.57;22.99;99386.84;5070660;28;20200;-54
2022/07/16 05:31:09;;;;;;;3.13;2.80;;;;;;;41.52;23.71;99394.94;5069174;28;20191;-54
2022/07/16 05:33:36;;;;;;;7.13;5.07;;;;;;;41.43;23.29;99390.13;5069745;28;20191;-52
2022/07/16 05:36:03;;;;;;;6.20;5.65;;;;;;;41.95;22.65;99402.44;5070442;28;20202;-54
2022/07/16 05:38:30;;;;;;;6.18;3.55;;;;;;;41.91;23.08;99387.63;5069028;28;20281;-55
2022/07/16 05:40:59;;;;;;;5.32;3.65;;;;;;;41.44;23.70;99392.59;5069100;28;20306;-54
2022/07/16 05:43:26;;;;;;;4.43;3.50;;;;;;;41.12;23.41;99399.66;5068877;28;20675;-54
2022/07/16 05:45:53;;;;;;;6.85;3.83;;;;;;;40.97;23.99;99395.56;5069019;28;20818;-55
2022/07/16 05:48:20;;;;;;;10.15;4.63;;;;;;;40.83;24.11;99394.25;5069193;28;20647;-55
2022/07/16 05:50:47;;;;;;;10.35;5.07;;;;;;;39.78;25.40;99388.13;5068897;28;20191;-54
2022/07/16 05:53:14;;;;;;;6.47;4.10;;;;;;;39.21;25.85;99383.19;5068984;28;20210;-53
2022/07/16 05:55:41;;;;;;;5.25;3.78;;;;;;;39.61;25.74;99384.47;5066209;28;20731;-54
2022/07/16 05:58:09;;;;;;;6.88;4.30;;;;;;;40.43;24.82;99385.22;5068764;28;20198;-55
2022/07/16 06:00:36;;;;;;;12.90;4.95;;;;;;;40.84;24.69;99381.47;5068817;28;20201;-55
2022/07/16 06:03:03;;;;;;;10.23;3.85;;;;;;;41.11;24.40;99387.94;5068935;28;20581;-54
2022/07/16 06:05:30;;;;;;;22.35;4.72;;;;;;;41.77;23.48;99380.03;5066098;28;20198;-53
2022/07/16 06:07:57;;;;;;;8.00;4.10;;;;;;;42.18;23.14;99387.75;5068509;28;20230;-59
2022/07/16 06:10:24;;;;;;;7.28;3.80;;;;;;;42.14;22.86;99383.88;5068413;28;20196;-58
2022/07/16 06:12:51;;;;;;;8.43;4.30;;;;;;;42.06;23.86;99383.50;5068861;28;20192;-59
2022/07/16 06:15:19;;;;;;;5.30;3.85;;;;;;;41.95;23.63;99368.88;5069849;28;20230;-59
2022/07/16 06:17:46;;;;;;;11.27;3.60;;;;;;;41.96;23.37;99371.38;5069095;28;20187;-59
2022/07/16 06:20:14;;;;;;;4.93;3.58;;;;;;;42.12;23.15;99357.91;5069797;28;20598;-59
2022/07/16 06:22:41;;;;;;;8.85;3.45;;;;;;;41.71;23.47;99368.25;5069733;28;20223;-59
2022/07/16 06:25:08;;;;;;;6.28;3.40;;;;;;;41.98;23.12;99362.94;5069496;28;20227;-53
2022/07/16 06:27:35;;;;;;;4.57;4.15;;;;;;;42.59;22.94;99366.44;5069795;28;20294;-54
2022/07/16 06:30:04;;;;;;;9.98;4.03;;;;;;;42.55;23.58;99359.88;5069984;28;20205;-54
2022/07/16 06:32:32;;;;;;;7.65;3.88;;;;;;;42.37;22.95;99367.28;5069673;28;20668;-53
2022/07/16 06:34:59;;;;;;;5.82;5.30;;;;;;;41.82;23.03;99353.69;5069629;28;20194;-54
2022/07/16 06:37:26;;;;;;;204.13;66.85;;;;;;;41.76;22.58;99367.50;5069693;28;20679;-54
2022/07/16 06:39:53;;;;;;;28.50;6.63;;;;;;;41.77;22.22;99355.50;5069518;28;20289;-55
2022/07/16 06:42:20;;;;;;;28.58;9.45;;;;;;;41.52;23.77;99345.88;5068473;28;20702;-55
2022/07/16 06:44:47;;;;;;;14.10;5.25;;;;;;;41.25;22.94;99347.59;5069464;28;20201;-55
2022/07/16 06:47:14;;;;;;;28.88;7.55;;;;;;;41.35;25.46;99350.50;5069415;28;20196;-54
2022/07/16 06:49:42;;;;;;;7.03;3.78;;;;;;;41.15;23.56;99355.63;5069430;28;20199;-54
2022/07/16 06:52:09;;;;;;;4.18;3.35;;;;;;;40.70;23.72;99352.84;5069251;28;20195;-59
2022/07/16 06:54:36;;;;;;;4.45;3.28;;;;;;;40.70;23.76;99347.41;5068891;28;20199;-58
2022/07/16 06:57:03;;;;;;;3.47;3.17;;;;;;;40.67;24.41;99348.72;5069336;28;20203;-59
2022/07/16 06:59:30;;;;;;;3.30;3.10;;;;;;;40.69;23.74;99348.47;5069386;28;20196;-59
2022/07/16 07:01:57;;;;;;;8.18;3.20;;;;;;;41.00;23.14;99356.13;5069050;28;20225;-55
2022/07/16 07:04:24;;;;;;;6.32;3.88;;;;;;;40.87;23.56;99354.56;5068614;28;20724;-55
2022/07/16 07:06:52;;;;;;;5.68;3.08;;;;;;;40.72;23.82;99354.28;5069663;28;20306;-55
2022/07/16 07:09:20;;;;;;;8.48;3.25;;;;;;;40.92;23.96;99348.38;5069166;28;20318;-55
2022/07/16 07:11:47;;;;;;;4.18;3.22;;;;;;;40.43;23.39;99347.16;5068640;28;20199;-53
2022/07/16 07:14:13;;;;;;;2.90;2.70;;;;;;;40.53;24.45;99339.19;5061462;28;20667;-53
2022/07/16 07:16:40;;;;;;;5.28;3.30;;;;;;;40.84;23.65;99343.34;5051481;28;20211;-53
2022/07/16 07:19:07;;;;;;;4.03;2.65;;;;;;;40.83;22.59;99347.13;5048858;28;20580;-53
2022/07/16 07:21:34;;;;;;;6.78;3.30;;;;;;;40.57;22.97;99345.81;5060023;28;20219;-52
2022/07/16 07:24:03;;;;;;;3.55;2.85;;;;;;;40.44;23.01;99348.81;5052207;28;20298;-53
2022/07/16 07:26:30;;;;;;;3.58;3.38;;;;;;;40.50;23.20;99347.84;5051073;28;20199;-53
2022/07/16 07:28:57;;;;;;;2.95;2.75;;;;;;;40.55;24.89;99340.59;5062378;28;20670;-53
2022/07/16 07:31:24;;;;;;;3.50;3.20;;;;;;;40.95;22.23;99345.19;5062347;28;20202;-57
2022/07/16 07:33:51;;;;;;;7.13;3.75;;;;;;;41.06;22.58;99341.56;5067843;28;20668;-57
2022/07/16 07:36:19;;;;;;;5.93;5.38;;;;;;;41.18;22.74;99349.69;5068276;28;20806;-57
2022/07/16 07:38:46;;;;;;;3.53;3.22;;;;;;;40.90;22.05;99354.06;5065722;28;20257;-53
2022/07/16 07:41:14;;;;;;;5.63;2.60;;;;;;;40.77;22.25;99346.19;5067965;28;20210;-53
2022/07/16 07:43:41;;;;;;;3.75;3.55;;;;;;;40.89;21.88;99346.13;5068102;28;20199;-57
2022/07/16 07:46:08;;;;;;;8.15;3.33;;;;;;;41.06;22.10;99347.00;5062001;28;20203;-57
2022/07/16 07:48:35;;;;;;;2.22;2.13;;;;;;;41.46;20.99;99351.47;5062327;28;20204;-57
2022/07/16 07:51:02;;;;;;;2.78;2.65;;;;;;;41.49;21.58;99351.81;5069036;28;20683;-58
2022/07/16 07:53:29;;;;;;;4.13;2.60;;;;;;;41.75;21.67;99354.97;5069712;28;20187;-58
2022/07/16 07:55:56;;;;;;;5.85;2.55;;;;;;;41.90;21.83;99355.16;5071341;28;20200;-58
2022/07/16 07:58:25;;;;;;;2.75;2.35;;;;;;;42.12;21.32;99352.47;5071434;28;20206;-58
2022/07/16 08:00:54;;;;;;;2.80;2.58;;;;;;;42.50;20.53;99352.44;5072088;28;20200;-57
2022/07/16 08:03:21;;;;;;;7.13;2.47;;;;;;;42.77;20.40;99357.94;5072211;28;20226;-57
2022/07/16 08:05:48;;;;;;;3.22;2.63;;;;;;;42.74;20.64;99356.50;5072534;28;20585;-59
2022/07/16 08:08:15;;;;;;;2.55;2.35;;;;;;;42.92;20.02;99354.50;5071562;28;20227;-58
2022/07/16 08:10:42;;;;;;;6.47;2.50;;;;;;;43.49;20.19;99353.91;5071877;28;20282;-59
2022/07/16 08:13:09;;;;;;;3.28;2.20;;;;;;;43.88;19.52;99362.69;5071943;28;20211;-59
2022/07/16 08:15:38;;;;;;;2.42;2.33;;;;;;;43.96;19.24;99348.50;5065143;28;20199;-58
2022/07/16 08:18:04;;;;;;;2.85;2.40;;;;;;;43.93;19.56;99349.00;5063478;28;20226;-58
2022/07/16 08:20:31;;;;;;;4.57;2.97;;;;;;;44.07;19.48;99347.47;5067637;28;20199;-54
2022/07/16 08:22:58;;;;;;;2.97;2.78;;;;;;;43.08;20.60;99335.28;5070191;28;20306;-53
2022/07/16 08:28:09;;;;;;;2.80;2.70;;;;;;;43.79;19.91;99338.59;5069359;28;20249;-58
2022/07/16 08:30:38;;;;;;;6.20;4.65;;;;;;;43.68;19.81;99336.84;5068182;28;20655;-59
2022/07/16 08:33:05;;;;;;;4.80;3.20;;;;;;;43.86;20.07;99337.50;5070423;28;20188;-58
2022/07/16 08:35:32;;;;;;;4.38;2.72;;;;;;;43.99;20.33;99335.16;5070636;28;20558;-58
2022/07/16 08:37:59;;;;;;;3.58;3.30;;;;;;;43.72;19.71;99337.97;5070575;28;20685;-58
2022/07/16 08:40:26;;;;;;;5.10;2.80;;;;;;;43.07;20.04;99332.81;5070473;28;20295;-54
2022/07/16 08:42:53;;;;;;;4.95;2.90;;;;;;;43.13;20.26;99322.72;5070049;28;20221;-58
2022/07/16 08:45:23;;;;;;;3.35;3.10;;;;;;;42.76;20.52;99328.97;5070208;28;20249;-53
2022/07/16 08:47:52;;;;;;;4.57;2.60;;;;;;;42.38;20.34;99330.75;5070210;28;20286;-54
2022/07/16 08:50:19;;;;;;;2.80;2.60;;;;;;;42.29;20.63;99318.59;5068272;28;20195;-57
2022/07/16 08:52:50;;;;;;;4.30;3.15;;;;;;;41.96;21.50;99324.19;5070078;28;20187;-58
2022/07/16 08:55:18;;;;;;;4.18;3.10;;;;;;;41.61;21.32;99316.31;5067755;28;20199;-58
2022/07/16 08:57:47;;;;;;;2.83;2.53;;;;;;;41.60;21.19;99320.94;5071324;28;20286;-58
2022/07/16 09:00:15;;;;;;;3.03;2.72;;;;;;;40.75;21.53;99301.28;5071206;28;20195;-54
2022/07/16 09:02:42;;;;;;;4.82;2.63;;;;;;;40.48;22.04;99312.72;5071274;28;20762;-54
2022/07/16 09:05:11;;;;;;;3.78;3.50;;;;;;;40.95;21.78;99317.94;5070171;28;20192;-54
2022/07/16 09:07:38;;;;;;;4.93;2.70;;;;;;;40.76;21.99;99322.78;5070859;28;20199;-56
2022/07/16 09:10:06;;;;;;;2.80;2.70;;;;;;;40.28;22.53;99328.66;5071003;28;20290;-54
2022/07/16 09:12:39;;;;;;;3.20;3.00;;;;;;;40.28;22.47;99319.66;5071011;28;20532;-54
2022/07/16 09:15:25;;;;;;;4.78;3.10;;;;;;;40.75;22.72;99310.22;5071087;28;20231;-56
2022/07/16 09:18:12;;;;;;;4.78;2.55;;;;;;;41.18;21.79;99308.84;5070950;28;20207;-59
2022/07/16 09:20:43;;;;;;;4.90;3.45;;;;;;;41.01;21.67;99316.13;5070892;28;20199;-60
2022/07/16 09:23:31;;;;;;;2.38;2.17;;;;;;;40.56;21.51;99322.38;5070680;28;20223;-59
2022/07/16 09:26:00;;;;;;;3.03;2.83;;;;;;;40.62;21.13;99315.97;5070847;28;20204;-59
2022/07/16 09:28:40;;;;;;;2.85;2.60;;;;;;;40.44;21.68;99314.25;5070879;28;20202;-59
2022/07/16 09:31:07;;;;;;;2.70;2.50;;;;;;;40.44;21.83;99311.53;5070786;28;20202;-59
2022/07/16 09:33:34;;;;;;;3.60;2.90;;;;;;;40.73;21.70;99315.13;5070494;28;20205;-59
2022/07/16 09:36:10;;;;;;;4.05;2.63;;;;;;;40.84;21.92;99311.50;5070665;28;20206;-59
2022/07/16 09:38:51;;;;;;;2.92;2.72;;;;;;;40.75;22.21;99312.97;5070470;28;20199;-54
2022/07/16 09:41:19;;;;;;;4.47;3.00;;;;;;;40.79;21.79;99314.13;5070633;28;20567;-54
2022/07/16 09:43:46;;;;;;;4.72;2.80;;;;;;;40.76;21.70;99314.59;5070222;28;20229;-55
2022/07/16 09:46:17;;;;;;;4.35;2.45;;;;;;;40.58;21.57;99306.63;5070615;28;20631;-55
2022/07/16 09:48:45;;;;;;;4.40;2.95;;;;;;;40.49;21.76;99299.94;5070285;28;20230;-60
2022/07/16 09:51:20;;;;;;;2.88;2.75;;;;;;;40.50;21.96;99296.97;5070328;28;20675;-58
2022/07/16 09:53:47;;;;;;;4.30;4.00;;;;;;;40.56;21.86;99287.00;5070194;28;20187;-58
2022/07/16 09:56:17;;;;;;;9.90;8.98;;;;;;;40.46;22.22;99294.97;5070354;28;20282;-59
2022/07/16 09:58:48;;;;;;;5.72;5.43;;;;;;;40.52;22.49;99296.75;5070073;28;20219;-60
2022/07/16 10:01:16;;;;;;;7.88;7.15;;;;;;;40.55;21.91;99296.22;5069867;28;20291;-59
2022/07/16 10:03:44;;;;;;;4.68;4.22;;;;;;;40.38;22.30;99296.22;5069772;28;20248;-59
2022/07/16 10:06:11;;;;;;;8.95;8.35;;;;;;;40.46;22.53;99286.81;5069835;28;20199;-57
2022/07/16 10:08:41;;;;;;;3.78;3.58;;;;;;;40.39;22.22;99286.97;5069727;28;20231;-58
2022/07/16 10:11:10;;;;;;;4.15;3.88;;;;;;;40.49;22.46;99278.19;5069999;28;20207;-58
2022/07/16 10:13:40;;;;;;;4.10;3.90;;;;;;;40.63;22.31;99276.81;5069752;28;20240;-57
2022/07/16 10:16:07;;;;;;;4.25;3.95;;;;;;;40.69;22.37;99280.44;5069556;28;20290;-58
2022/07/16 10:18:38;;;;;;;5.13;3.13;;;;;;;40.29;22.40;99285.97;5069830;28;20552;-60
2022/07/16 10:21:08;;;;;;;3.28;2.95;;;;;;;39.70;22.52;99277.06;5069895;28;20283;-54
2022/07/16 10:23:37;;;;;;;3.63;3.20;;;;;;;39.17;23.58;99259.81;5069714;28;20229;-53
2022/07/16 10:26:09;;;;;;;3.85;3.13;;;;;;;39.25;23.23;99277.66;5069875;28;20684;-54
2022/07/16 10:28:38;;;;;;;4.20;3.78;;;;;;;39.22;24.16;99269.97;5069923;28;20229;-55
2022/07/16 10:31:39;;;;;;;3.65;3.20;;;;;;;39.36;23.79;99267.84;5069501;28;20282;-55
2022/07/16 10:34:33;;;;;;;3.20;2.90;;;;;;;39.19;23.36;99254.97;5066286;28;20191;-55
2022/07/16 10:37:01;;;;;;;2.85;2.60;;;;;;;38.67;23.87;99256.66;5034170;28;20202;-55
2022/07/16 10:39:29;;;;;;;5.15;4.72;;;;;;;38.54;24.53;99253.31;5069430;28;20348;-55
2022/07/16 10:41:59;;;;;;;5.80;5.40;;;;;;;38.43;24.32;99254.91;5069571;28;20285;-58
2022/07/16 10:44:42;;;;;;;5.00;4.70;;;;;;;38.40;24.29;99247.22;5069321;28;20216;-53
2022/07/16 10:47:09;;;;;;;6.28;5.78;;;;;;;38.60;23.90;99253.22;5069559;28;20207;-54
2022/07/16 10:49:36;;;;;;;3.67;3.47;;;;;;;38.39;24.00;99249.09;5069700;28;20195;-54
2022/07/16 10:52:05;;;;;;;2.90;2.75;;;;;;;38.38;23.90;99241.19;5069602;28;20283;-55
2022/07/16 10:54:35;;;;;;;4.85;2.70;;;;;;;38.09;24.46;99243.69;5069674;28;20690;-55
2022/07/16 10:57:04;;;;;;;2.50;2.40;;;;;;;37.73;24.05;99222.84;5069077;28;20191;-54
2022/07/16 10:59:33;;;;;;;2.67;2.50;;;;;;;37.69;24.68;99235.19;5069288;28;20394;-54
2022/07/16 11:02:03;;;;;;;4.13;3.10;;;;;;;37.63;25.00;99232.56;5069169;28;20198;-54
2022/07/16 11:04:38;;;;;;;5.32;3.40;;;;;;;37.74;24.14;99229.09;5069253;28;20223;-54
2022/07/16 11:07:08;;;;;;;3.75;2.88;;;;;;;37.84;23.92;99223.13;5069535;28;20689;-54
2022/07/16 11:09:37;;;;;;;3.13;2.78;;;;;;;37.91;24.38;99223.91;5069061;28;20227;-57
2022/07/16 11:12:11;;;;;;;4.00;3.72;;;;;;;38.10;24.23;99228.25;5069101;28;20210;-59
2022/07/16 11:14:38;;;;;;;3.83;3.53;;;;;;;38.09;24.13;99227.41;5069271;28;20191;-57
2022/07/16 11:17:05;;;;;;;4.00;3.03;;;;;;;38.07;24.63;99228.66;5069217;28;20373;-57
2022/07/16 11:19:37;;;;;;;2.63;2.53;;;;;;;38.19;23.95;99224.16;5069193;28;20203;-57
2022/07/16 11:22:05;;;;;;;3.35;2.95;;;;;;;38.24;23.17;99213.47;5069054;28;20195;-53
2022/07/16 11:24:32;;;;;;;4.43;3.13;;;;;;;38.29;23.66;99221.72;5069123;28;20226;-54
2022/07/16 11:27:01;;;;;;;3.40;3.20;;;;;;;38.38;24.17;99220.31;5068965;28;20688;-54
2022/07/16 11:29:30;;;;;;;5.93;3.75;;;;;;;38.37;24.17;99218.69;5069249;28;20199;-54
2022/07/16 11:32:00;;;;;;;4.63;3.92;;;;;;;38.35;23.88;99219.97;5072296;28;20199;-54
2022/07/16 11:34:27;;;;;;;3.47;2.88;;;;;;;38.24;24.18;99218.06;5072368;28;20199;-54
2022/07/16 11:36:57;;;;;;;2.92;2.70;;;;;;;38.27;23.53;99218.41;5072568;28;20191;-54
2022/07/16 11:39:27;;;;;;;3.10;2.90;;;;;;;38.25;23.40;99215.13;5069979;28;20656;-55
2022/07/16 11:41:56;;;;;;;3.67;2.70;;;;;;;38.25;23.46;99215.13;5072201;28;20282;-54
2022/07/16 11:44:24;;;;;;;3.75;3.15;;;;;;;38.30;24.23;99211.69;5069627;28;20212;-54
2022/07/16 11:46:54;;;;;;;3.47;3.13;;;;;;;38.26;24.01;99216.78;5072842;28;20723;-54